sensor_id;sensor_type;location;lat;lon;timestamp;P1;durP1;ratioP1;P2;durP2;ratioP2
42662;SDS011;44330;51.360;6.686;2023-01-28T00:01:03;13.15;;;9.40;;
42662;SDS011;44330;51.360;6.686;2023-01-28T00:03:30;15.73;;;10.40;;
42662;SDS011;44330;51.360;6.686;2023-01-28T00:06:00;17.17;;;10.10;;
42662;SDS011;44330;51.360;6.686;2023-01-28T00:11:11;12.20;;;9.32;;
42662;SDS011;44330;51.360;6.686;2023-01-28T00:13:37;14.48;;;10.18;;
42662;SDS011;44330;51.360;6.686;2023-01-28T00:16:04;14.30;;;9.52;;
42662;SDS011;44330;51.360;6.686;2023-01-28T00:18:34;12.70;;;9.82;;
42662;SDS011;44330;51.360;6.686;2023-01-28T00:21:00;13.93;;;10.55;;
42662;SDS011;44330;51.360;6.686;2023-01-28T00:23:26;21.40;;;11.43;;
42662;SDS011;44330;51.360;6.686;2023-01-28T00:25:53;15.00;;;10.10;;
42662;SDS011;44330;51.360;6.686;2023-01-28T00:28:19;16.80;;;9.95;;
42662;SDS011;44330;51.360;6.686;2023-01-28T00:30:46;35.53;;;10.18;;
42662;SDS011;44330;51.360;6.686;2023-01-28T00:33:11;14.27;;;9.93;;
42662;SDS011;44330;51.360;6.686;2023-01-28T00:35:37;15.27;;;10.45;;
42662;SDS011;44330;51.360;6.686;2023-01-28T00:38:02;16.60;;;10.57;;
42662;SDS011;44330;51.360;6.686;2023-01-28T00:40:29;15.68;;;10.43;;
42662;SDS011;44330;51.360;6.686;2023-01-28T00:42:55;15.57;;;10.25;;
42662;SDS011;44330;51.360;6.686;2023-01-28T00:45:21;15.50;;;10.07;;
42662;SDS011;44330;51.360;6.686;2023-01-28T00:47:46;15.10;;;10.48;;
42662;SDS011;44330;51.360;6.686;2023-01-28T00:50:12;18.45;;;11.27;;
42662;SDS011;44330;51.360;6.686;2023-01-28T00:52:38;17.10;;;11.57;;
42662;SDS011;44330;51.360;6.686;2023-01-28T00:55:03;16.10;;;10.93;;
42662;SDS011;44330;51.360;6.686;2023-01-28T00:57:29;19.17;;;10.93;;
42662;SDS011;44330;51.360;6.686;2023-01-28T00:59:55;16.17;;;10.30;;
42662;SDS011;44330;51.360;6.686;2023-01-28T01:02:20;18.23;;;12.30;;
42662;SDS011;44330;51.360;6.686;2023-01-28T01:04:46;16.95;;;11.90;;
42662;SDS011;44330;51.360;6.686;2023-01-28T01:07:22;18.50;;;11.68;;
42662;SDS011;44330;51.360;6.686;2023-01-28T01:09:56;22.63;;;12.00;;
42662;SDS011;44330;51.360;6.686;2023-01-28T01:12:25;17.40;;;11.93;;
42662;SDS011;44330;51.360;6.686;2023-01-28T01:14:51;19.17;;;12.35;;
42662;SDS011;44330;51.360;6.686;2023-01-28T01:17:17;18.27;;;12.38;;
42662;SDS011;44330;51.360;6.686;2023-01-28T01:19:45;19.33;;;11.93;;
42662;SDS011;44330;51.360;6.686;2023-01-28T01:22:10;22.23;;;11.63;;
42662;SDS011;44330;51.360;6.686;2023-01-28T01:24:36;21.23;;;13.07;;
42662;SDS011;44330;51.360;6.686;2023-01-28T01:27:01;20.48;;;12.38;;
42662;SDS011;44330;51.360;6.686;2023-01-28T01:29:27;20.52;;;13.10;;
42662;SDS011;44330;51.360;6.686;2023-01-28T01:31:53;20.02;;;13.23;;
42662;SDS011;44330;51.360;6.686;2023-01-28T01:34:19;21.00;;;13.93;;
42662;SDS011;44330;51.360;6.686;2023-01-28T01:36:44;27.70;;;14.10;;
42662;SDS011;44330;51.360;6.686;2023-01-28T01:39:13;27.65;;;13.73;;
42662;SDS011;44330;51.360;6.686;2023-01-28T01:41:38;21.05;;;11.68;;
42662;SDS011;44330;51.360;6.686;2023-01-28T01:44:04;22.02;;;14.00;;
42662;SDS011;44330;51.360;6.686;2023-01-28T01:46:40;20.88;;;13.57;;
42662;SDS011;44330;51.360;6.686;2023-01-28T01:49:20;19.65;;;12.02;;
42662;SDS011;44330;51.360;6.686;2023-01-28T01:51:49;16.60;;;12.18;;
42662;SDS011;44330;51.360;6.686;2023-01-28T01:54:18;20.60;;;12.40;;
42662;SDS011;44330;51.360;6.686;2023-01-28T01:56:46;22.23;;;12.98;;
42662;SDS011;44330;51.360;6.686;2023-01-28T01:59:19;22.38;;;12.35;;
42662;SDS011;44330;51.360;6.686;2023-01-28T02:01:47;18.95;;;12.80;;
42662;SDS011;44330;51.360;6.686;2023-01-28T02:04:46;23.80;;;13.38;;
42662;SDS011;44330;51.360;6.686;2023-01-28T02:07:08;20.73;;;13.02;;
42662;SDS011;44330;51.360;6.686;2023-01-28T02:09:36;29.15;;;13.07;;
42662;SDS011;44330;51.360;6.686;2023-01-28T02:12:07;19.88;;;13.80;;
42662;SDS011;44330;51.360;6.686;2023-01-28T02:14:41;21.05;;;13.32;;
42662;SDS011;44330;51.360;6.686;2023-01-28T02:17:09;20.02;;;13.13;;
42662;SDS011;44330;51.360;6.686;2023-01-28T02:19:36;20.15;;;13.02;;
42662;SDS011;44330;51.360;6.686;2023-01-28T02:22:21;20.27;;;11.00;;
42662;SDS011;44330;51.360;6.686;2023-01-28T02:30:15;10.65;;;7.55;;
42662;SDS011;44330;51.360;6.686;2023-01-28T02:32:53;17.75;;;8.70;;
42662;SDS011;44330;51.360;6.686;2023-01-28T02:35:27;16.88;;;8.48;;
42662;SDS011;44330;51.360;6.686;2023-01-28T02:38:02;18.40;;;8.20;;
42662;SDS011;44330;51.360;6.686;2023-01-28T02:40:33;13.13;;;7.47;;
42662;SDS011;44330;51.360;6.686;2023-01-28T02:43:30;15.77;;;8.20;;
42662;SDS011;44330;51.360;6.686;2023-01-28T02:45:59;17.92;;;9.20;;
42662;SDS011;44330;51.360;6.686;2023-01-28T02:49:01;13.88;;;7.90;;
42662;SDS011;44330;51.360;6.686;2023-01-28T02:51:42;14.23;;;8.43;;
42662;SDS011;44330;51.360;6.686;2023-01-28T02:57:54;16.35;;;8.85;;
42662;SDS011;44330;51.360;6.686;2023-01-28T03:00:45;13.77;;;8.80;;
42662;SDS011;44330;51.360;6.686;2023-01-28T03:06:19;9.40;;;7.07;;
42662;SDS011;44330;51.360;6.686;2023-01-28T03:08:49;13.85;;;8.75;;
42662;SDS011;44330;51.360;6.686;2023-01-28T03:11:41;13.27;;;8.52;;
42662;SDS011;44330;51.360;6.686;2023-01-28T03:14:30;14.77;;;8.10;;
42662;SDS011;44330;51.360;6.686;2023-01-28T03:17:21;14.38;;;7.80;;
42662;SDS011;44330;51.360;6.686;2023-01-28T03:20:11;11.80;;;7.68;;
42662;SDS011;44330;51.360;6.686;2023-01-28T03:22:57;10.35;;;7.50;;
42662;SDS011;44330;51.360;6.686;2023-01-28T03:25:52;11.90;;;7.95;;
42662;SDS011;44330;51.360;6.686;2023-01-28T03:28:39;12.55;;;7.95;;
42662;SDS011;44330;51.360;6.686;2023-01-28T03:31:26;12.23;;;8.38;;
42662;SDS011;44330;51.360;6.686;2023-01-28T03:34:11;15.10;;;8.30;;
42662;SDS011;44330;51.360;6.686;2023-01-28T03:36:56;14.60;;;7.43;;
42662;SDS011;44330;51.360;6.686;2023-01-28T03:39:24;10.68;;;7.28;;
42662;SDS011;44330;51.360;6.686;2023-01-28T03:42:02;10.45;;;7.05;;
42662;SDS011;44330;51.360;6.686;2023-01-28T03:44:30;8.10;;;5.22;;
42662;SDS011;44330;51.360;6.686;2023-01-28T03:47:15;14.05;;;7.30;;
42662;SDS011;44330;51.360;6.686;2023-01-28T03:49:45;11.02;;;7.63;;
42662;SDS011;44330;51.360;6.686;2023-01-28T03:52:15;12.30;;;8.27;;
42662;SDS011;44330;51.360;6.686;2023-01-28T03:54:43;12.15;;;8.60;;
42662;SDS011;44330;51.360;6.686;2023-01-28T03:59:37;12.50;;;7.90;;
42662;SDS011;44330;51.360;6.686;2023-01-28T04:02:02;12.10;;;8.02;;
42662;SDS011;44330;51.360;6.686;2023-01-28T04:04:29;9.50;;;7.35;;
42662;SDS011;44330;51.360;6.686;2023-01-28T04:06:56;10.95;;;8.15;;
42662;SDS011;44330;51.360;6.686;2023-01-28T04:09:23;13.05;;;8.50;;
42662;SDS011;44330;51.360;6.686;2023-01-28T04:11:49;14.20;;;8.95;;
42662;SDS011;44330;51.360;6.686;2023-01-28T04:14:15;12.10;;;8.40;;
42662;SDS011;44330;51.360;6.686;2023-01-28T04:16:42;12.57;;;8.40;;
42662;SDS011;44330;51.360;6.686;2023-01-28T04:19:08;12.30;;;8.35;;
42662;SDS011;44330;51.360;6.686;2023-01-28T04:21:36;15.90;;;8.68;;
42662;SDS011;44330;51.360;6.686;2023-01-28T04:24:01;12.57;;;8.70;;
42662;SDS011;44330;51.360;6.686;2023-01-28T04:26:27;17.17;;;9.57;;
42662;SDS011;44330;51.360;6.686;2023-01-28T04:28:52;15.85;;;9.82;;
42662;SDS011;44330;51.360;6.686;2023-01-28T04:31:18;14.95;;;9.60;;
42662;SDS011;44330;51.360;6.686;2023-01-28T04:33:44;18.60;;;11.40;;
42662;SDS011;44330;51.360;6.686;2023-01-28T04:36:09;19.15;;;11.07;;
42662;SDS011;44330;51.360;6.686;2023-01-28T04:38:35;19.75;;;10.80;;
42662;SDS011;44330;51.360;6.686;2023-01-28T04:41:00;16.13;;;10.98;;
42662;SDS011;44330;51.360;6.686;2023-01-28T04:43:26;18.73;;;10.68;;
42662;SDS011;44330;51.360;6.686;2023-01-28T04:45:51;18.20;;;11.32;;
42662;SDS011;44330;51.360;6.686;2023-01-28T04:48:17;20.85;;;11.70;;
42662;SDS011;44330;51.360;6.686;2023-01-28T04:50:43;17.75;;;11.57;;
42662;SDS011;44330;51.360;6.686;2023-01-28T04:53:09;19.88;;;11.82;;
42662;SDS011;44330;51.360;6.686;2023-01-28T04:55:35;18.05;;;11.77;;
42662;SDS011;44330;51.360;6.686;2023-01-28T04:58:01;18.02;;;12.20;;
42662;SDS011;44330;51.360;6.686;2023-01-28T05:00:26;25.00;;;12.52;;
42662;SDS011;44330;51.360;6.686;2023-01-28T05:02:52;18.23;;;11.90;;
42662;SDS011;44330;51.360;6.686;2023-01-28T05:05:17;19.20;;;11.75;;
42662;SDS011;44330;51.360;6.686;2023-01-28T05:07:44;18.88;;;12.20;;
42662;SDS011;44330;51.360;6.686;2023-01-28T05:10:18;20.65;;;11.88;;
42662;SDS011;44330;51.360;6.686;2023-01-28T05:12:44;24.27;;;11.98;;
42662;SDS011;44330;51.360;6.686;2023-01-28T05:15:10;21.02;;;12.40;;
42662;SDS011;44330;51.360;6.686;2023-01-28T05:17:36;20.05;;;12.27;;
42662;SDS011;44330;51.360;6.686;2023-01-28T05:20:01;19.50;;;11.98;;
42662;SDS011;44330;51.360;6.686;2023-01-28T05:22:28;20.70;;;12.07;;
42662;SDS011;44330;51.360;6.686;2023-01-28T05:24:53;18.67;;;11.48;;
42662;SDS011;44330;51.360;6.686;2023-01-28T05:27:19;22.67;;;12.85;;
42662;SDS011;44330;51.360;6.686;2023-01-28T05:29:44;22.92;;;13.30;;
42662;SDS011;44330;51.360;6.686;2023-01-28T05:32:10;26.90;;;13.77;;
42662;SDS011;44330;51.360;6.686;2023-01-28T05:34:35;21.65;;;12.70;;
42662;SDS011;44330;51.360;6.686;2023-01-28T05:37:01;22.95;;;13.93;;
42662;SDS011;44330;51.360;6.686;2023-01-28T05:39:26;24.10;;;14.18;;
42662;SDS011;44330;51.360;6.686;2023-01-28T05:41:52;23.55;;;13.43;;
42662;SDS011;44330;51.360;6.686;2023-01-28T05:44:17;28.15;;;14.25;;
42662;SDS011;44330;51.360;6.686;2023-01-28T05:46:43;23.88;;;13.57;;
42662;SDS011;44330;51.360;6.686;2023-01-28T05:49:10;24.30;;;13.10;;
42662;SDS011;44330;51.360;6.686;2023-01-28T05:51:37;26.35;;;13.73;;
42662;SDS011;44330;51.360;6.686;2023-01-28T05:54:04;25.00;;;14.30;;
42662;SDS011;44330;51.360;6.686;2023-01-28T05:56:30;24.58;;;13.68;;
42662;SDS011;44330;51.360;6.686;2023-01-28T05:58:56;24.33;;;13.38;;
42662;SDS011;44330;51.360;6.686;2023-01-28T06:01:21;23.55;;;13.65;;
42662;SDS011;44330;51.360;6.686;2023-01-28T06:03:47;19.92;;;12.77;;
42662;SDS011;44330;51.360;6.686;2023-01-28T06:06:13;23.67;;;13.50;;
42662;SDS011;44330;51.360;6.686;2023-01-28T06:08:40;23.40;;;14.27;;
42662;SDS011;44330;51.360;6.686;2023-01-28T06:11:06;27.42;;;15.18;;
42662;SDS011;44330;51.360;6.686;2023-01-28T06:13:31;28.05;;;14.30;;
42662;SDS011;44330;51.360;6.686;2023-01-28T06:15:57;24.30;;;14.77;;
42662;SDS011;44330;51.360;6.686;2023-01-28T06:18:23;26.65;;;14.13;;
42662;SDS011;44330;51.360;6.686;2023-01-28T06:20:49;26.73;;;14.40;;
42662;SDS011;44330;51.360;6.686;2023-01-28T06:23:14;24.55;;;14.45;;
42662;SDS011;44330;51.360;6.686;2023-01-28T06:25:40;29.65;;;16.13;;
42662;SDS011;44330;51.360;6.686;2023-01-28T06:28:06;30.20;;;15.85;;
42662;SDS011;44330;51.360;6.686;2023-01-28T06:30:31;29.60;;;15.32;;
42662;SDS011;44330;51.360;6.686;2023-01-28T06:32:57;29.27;;;16.70;;
42662;SDS011;44330;51.360;6.686;2023-01-28T06:35:23;31.00;;;17.25;;
42662;SDS011;44330;51.360;6.686;2023-01-28T06:37:48;30.45;;;16.17;;
42662;SDS011;44330;51.360;6.686;2023-01-28T06:40:14;25.48;;;15.50;;
42662;SDS011;44330;51.360;6.686;2023-01-28T06:42:40;24.27;;;14.48;;
42662;SDS011;44330;51.360;6.686;2023-01-28T06:45:05;27.92;;;16.08;;
42662;SDS011;44330;51.360;6.686;2023-01-28T06:47:31;25.55;;;14.85;;
42662;SDS011;44330;51.360;6.686;2023-01-28T06:49:57;28.50;;;15.43;;
42662;SDS011;44330;51.360;6.686;2023-01-28T06:52:22;32.80;;;16.83;;
42662;SDS011;44330;51.360;6.686;2023-01-28T06:54:48;27.05;;;14.30;;
42662;SDS011;44330;51.360;6.686;2023-01-28T06:57:13;24.27;;;14.30;;
42662;SDS011;44330;51.360;6.686;2023-01-28T06:59:39;29.25;;;15.30;;
42662;SDS011;44330;51.360;6.686;2023-01-28T07:02:04;23.08;;;14.23;;
42662;SDS011;44330;51.360;6.686;2023-01-28T07:04:30;24.73;;;14.48;;
42662;SDS011;44330;51.360;6.686;2023-01-28T07:06:56;28.40;;;15.27;;
42662;SDS011;44330;51.360;6.686;2023-01-28T07:09:21;29.23;;;15.73;;
42662;SDS011;44330;51.360;6.686;2023-01-28T07:11:47;26.17;;;15.52;;
42662;SDS011;44330;51.360;6.686;2023-01-28T07:14:12;28.92;;;16.80;;
42662;SDS011;44330;51.360;6.686;2023-01-28T07:16:38;33.83;;;16.63;;
42662;SDS011;44330;51.360;6.686;2023-01-28T07:19:03;27.50;;;15.90;;
42662;SDS011;44330;51.360;6.686;2023-01-28T07:21:29;31.83;;;16.70;;
42662;SDS011;44330;51.360;6.686;2023-01-28T07:23:54;34.22;;;17.42;;
42662;SDS011;44330;51.360;6.686;2023-01-28T07:26:20;31.67;;;16.63;;
42662;SDS011;44330;51.360;6.686;2023-01-28T07:28:46;34.92;;;18.50;;
42662;SDS011;44330;51.360;6.686;2023-01-28T07:31:11;31.35;;;16.52;;
42662;SDS011;44330;51.360;6.686;2023-01-28T07:33:37;31.17;;;16.98;;
42662;SDS011;44330;51.360;6.686;2023-01-28T07:36:03;33.65;;;17.33;;
42662;SDS011;44330;51.360;6.686;2023-01-28T07:38:28;34.35;;;17.10;;
42662;SDS011;44330;51.360;6.686;2023-01-28T07:40:54;27.63;;;15.68;;
42662;SDS011;44330;51.360;6.686;2023-01-28T07:43:20;26.45;;;15.63;;
42662;SDS011;44330;51.360;6.686;2023-01-28T07:45:45;24.55;;;16.00;;
42662;SDS011;44330;51.360;6.686;2023-01-28T07:48:11;29.15;;;16.00;;
42662;SDS011;44330;51.360;6.686;2023-01-28T07:50:40;27.73;;;15.90;;
42662;SDS011;44330;51.360;6.686;2023-01-28T07:53:07;32.30;;;17.50;;
42662;SDS011;44330;51.360;6.686;2023-01-28T07:55:35;32.50;;;17.25;;
42662;SDS011;44330;51.360;6.686;2023-01-28T07:58:01;28.48;;;17.02;;
42662;SDS011;44330;51.360;6.686;2023-01-28T08:00:30;33.65;;;17.52;;
42662;SDS011;44330;51.360;6.686;2023-01-28T08:02:57;32.00;;;17.45;;
42662;SDS011;44330;51.360;6.686;2023-01-28T08:05:24;28.75;;;16.50;;
42662;SDS011;44330;51.360;6.686;2023-01-28T08:07:53;27.83;;;15.10;;
42662;SDS011;44330;51.360;6.686;2023-01-28T08:10:19;27.67;;;16.08;;
42662;SDS011;44330;51.360;6.686;2023-01-28T08:12:55;26.80;;;15.90;;
42662;SDS011;44330;51.360;6.686;2023-01-28T08:15:24;23.45;;;15.73;;
42662;SDS011;44330;51.360;6.686;2023-01-28T08:17:52;25.67;;;15.45;;
42662;SDS011;44330;51.360;6.686;2023-01-28T08:20:19;26.80;;;14.93;;
42662;SDS011;44330;51.360;6.686;2023-01-28T08:22:45;24.45;;;15.25;;
42662;SDS011;44330;51.360;6.686;2023-01-28T08:25:11;25.42;;;15.88;;
42662;SDS011;44330;51.360;6.686;2023-01-28T08:27:37;26.60;;;16.70;;
42662;SDS011;44330;51.360;6.686;2023-01-28T08:30:03;32.50;;;17.50;;
42662;SDS011;44330;51.360;6.686;2023-01-28T08:32:29;31.85;;;17.40;;
42662;SDS011;44330;51.360;6.686;2023-01-28T08:34:54;38.75;;;20.23;;
42662;SDS011;44330;51.360;6.686;2023-01-28T08:37:20;34.40;;;19.58;;
42662;SDS011;44330;51.360;6.686;2023-01-28T08:39:46;36.92;;;18.48;;
42662;SDS011;44330;51.360;6.686;2023-01-28T08:42:11;36.30;;;19.63;;
42662;SDS011;44330;51.360;6.686;2023-01-28T08:44:37;40.08;;;21.25;;
42662;SDS011;44330;51.360;6.686;2023-01-28T08:47:02;35.92;;;19.33;;
42662;SDS011;44330;51.360;6.686;2023-01-28T08:49:28;41.88;;;19.75;;
42662;SDS011;44330;51.360;6.686;2023-01-28T08:51:53;39.08;;;21.75;;
42662;SDS011;44330;51.360;6.686;2023-01-28T08:54:19;37.85;;;20.27;;
42662;SDS011;44330;51.360;6.686;2023-01-28T08:56:45;44.67;;;21.15;;
42662;SDS011;44330;51.360;6.686;2023-01-28T08:59:12;38.60;;;20.77;;
42662;SDS011;44330;51.360;6.686;2023-01-28T09:01:38;41.05;;;20.58;;
42662;SDS011;44330;51.360;6.686;2023-01-28T09:04:04;40.38;;;21.02;;
42662;SDS011;44330;51.360;6.686;2023-01-28T09:06:30;31.38;;;17.13;;
42662;SDS011;44330;51.360;6.686;2023-01-28T09:08:56;32.88;;;16.33;;
42662;SDS011;44330;51.360;6.686;2023-01-28T09:11:22;28.02;;;16.10;;
42662;SDS011;44330;51.360;6.686;2023-01-28T09:13:48;31.48;;;16.33;;
42662;SDS011;44330;51.360;6.686;2023-01-28T09:16:13;32.60;;;16.25;;
42662;SDS011;44330;51.360;6.686;2023-01-28T09:18:39;27.92;;;16.25;;
42662;SDS011;44330;51.360;6.686;2023-01-28T09:21:05;29.50;;;15.98;;
42662;SDS011;44330;51.360;6.686;2023-01-28T09:23:33;35.03;;;16.73;;
42662;SDS011;44330;51.360;6.686;2023-01-28T09:26:02;25.27;;;14.93;;
42662;SDS011;44330;51.360;6.686;2023-01-28T09:28:29;28.65;;;16.13;;
42662;SDS011;44330;51.360;6.686;2023-01-28T09:31:02;28.23;;;15.93;;
42662;SDS011;44330;51.360;6.686;2023-01-28T09:33:28;32.67;;;18.40;;
42662;SDS011;44330;51.360;6.686;2023-01-28T09:35:54;30.23;;;17.23;;
42662;SDS011;44330;51.360;6.686;2023-01-28T09:38:20;31.50;;;16.95;;
42662;SDS011;44330;51.360;6.686;2023-01-28T09:40:45;33.03;;;17.35;;
42662;SDS011;44330;51.360;6.686;2023-01-28T09:45:52;29.02;;;16.60;;
42662;SDS011;44330;51.360;6.686;2023-01-28T09:48:23;28.70;;;16.80;;
42662;SDS011;44330;51.360;6.686;2023-01-28T09:50:57;26.80;;;15.98;;
42662;SDS011;44330;51.360;6.686;2023-01-28T09:53:25;33.65;;;16.77;;
42662;SDS011;44330;51.360;6.686;2023-01-28T09:55:56;27.15;;;14.95;;
42662;SDS011;44330;51.360;6.686;2023-01-28T09:58:21;30.48;;;16.92;;
42662;SDS011;44330;51.360;6.686;2023-01-28T10:11:39;36.13;;;21.52;;
42662;SDS011;44330;51.360;6.686;2023-01-28T10:19:33;29.88;;;16.20;;
42662;SDS011;44330;51.360;6.686;2023-01-28T10:22:18;36.72;;;19.55;;
42662;SDS011;44330;51.360;6.686;2023-01-28T10:24:49;34.50;;;20.48;;
42662;SDS011;44330;51.360;6.686;2023-01-28T10:27:27;35.40;;;20.00;;
42662;SDS011;44330;51.360;6.686;2023-01-28T10:29:54;34.33;;;19.15;;
42662;SDS011;44330;51.360;6.686;2023-01-28T10:32:27;37.70;;;21.23;;
42662;SDS011;44330;51.360;6.686;2023-01-28T10:34:54;34.58;;;20.00;;
42662;SDS011;44330;51.360;6.686;2023-01-28T10:37:23;36.28;;;19.63;;
42662;SDS011;44330;51.360;6.686;2023-01-28T10:39:49;37.15;;;20.13;;
42662;SDS011;44330;51.360;6.686;2023-01-28T10:44:49;37.58;;;19.83;;
42662;SDS011;44330;51.360;6.686;2023-01-28T10:47:18;34.60;;;18.55;;
42662;SDS011;44330;51.360;6.686;2023-01-28T10:49:52;37.10;;;19.25;;
42662;SDS011;44330;51.360;6.686;2023-01-28T10:52:20;33.22;;;19.55;;
42662;SDS011;44330;51.360;6.686;2023-01-28T10:54:46;41.13;;;20.92;;
42662;SDS011;44330;51.360;6.686;2023-01-28T10:57:12;41.00;;;21.58;;
42662;SDS011;44330;51.360;6.686;2023-01-28T10:59:42;43.35;;;22.27;;
42662;SDS011;44330;51.360;6.686;2023-01-28T11:07:49;33.58;;;17.85;;
42662;SDS011;44330;51.360;6.686;2023-01-28T11:12:56;33.17;;;17.30;;
42662;SDS011;44330;51.360;6.686;2023-01-28T11:15:23;35.45;;;19.25;;
42662;SDS011;44330;51.360;6.686;2023-01-28T11:17:59;45.90;;;20.52;;
42662;SDS011;44330;51.360;6.686;2023-01-28T11:22:56;36.70;;;18.13;;
42662;SDS011;44330;51.360;6.686;2023-01-28T11:25:28;29.50;;;17.10;;
42662;SDS011;44330;51.360;6.686;2023-01-28T11:27:57;31.30;;;16.67;;
42662;SDS011;44330;51.360;6.686;2023-01-28T11:30:28;30.92;;;16.92;;
42662;SDS011;44330;51.360;6.686;2023-01-28T11:33:06;45.63;;;20.30;;
42662;SDS011;44330;51.360;6.686;2023-01-28T11:35:37;37.58;;;18.73;;
42662;SDS011;44330;51.360;6.686;2023-01-28T11:38:15;39.95;;;18.33;;
42662;SDS011;44330;51.360;6.686;2023-01-28T11:41:16;37.97;;;18.88;;
42662;SDS011;44330;51.360;6.686;2023-01-28T11:43:38;33.03;;;18.13;;
42662;SDS011;44330;51.360;6.686;2023-01-28T11:46:21;35.53;;;18.13;;
42662;SDS011;44330;51.360;6.686;2023-01-28T11:52:15;29.13;;;15.98;;
42662;SDS011;44330;51.360;6.686;2023-01-28T11:55:10;28.33;;;15.45;;
42662;SDS011;44330;51.360;6.686;2023-01-28T12:01:02;32.28;;;17.90;;
42662;SDS011;44330;51.360;6.686;2023-01-28T12:14:59;42.92;;;20.08;;
42662;SDS011;44330;51.360;6.686;2023-01-28T12:20:55;31.27;;;18.02;;
42662;SDS011;44330;51.360;6.686;2023-01-28T12:23:42;32.97;;;18.95;;
42662;SDS011;44330;51.360;6.686;2023-01-28T12:26:30;35.00;;;19.05;;
42662;SDS011;44330;51.360;6.686;2023-01-28T12:29:17;37.05;;;18.92;;
42662;SDS011;44330;51.360;6.686;2023-01-28T12:32:18;35.33;;;18.98;;
42662;SDS011;44330;51.360;6.686;2023-01-28T12:37:59;34.83;;;19.42;;
42662;SDS011;44330;51.360;6.686;2023-01-28T12:40:45;39.63;;;19.63;;
42662;SDS011;44330;51.360;6.686;2023-01-28T12:45:47;39.58;;;19.83;;
42662;SDS011;44330;51.360;6.686;2023-01-28T12:48:25;34.47;;;18.25;;
42662;SDS011;44330;51.360;6.686;2023-01-28T12:56:32;27.70;;;15.27;;
42662;SDS011;44330;51.360;6.686;2023-01-28T13:07:10;23.23;;;14.27;;
42662;SDS011;44330;51.360;6.686;2023-01-28T13:09:50;26.75;;;15.95;;
42662;SDS011;44330;51.360;6.686;2023-01-28T13:12:18;23.33;;;15.43;;
42662;SDS011;44330;51.360;6.686;2023-01-28T13:14:46;28.48;;;16.17;;
42662;SDS011;44330;51.360;6.686;2023-01-28T13:17:29;27.45;;;16.77;;
42662;SDS011;44330;51.360;6.686;2023-01-28T13:19:56;29.13;;;15.23;;
42662;SDS011;44330;51.360;6.686;2023-01-28T13:22:25;23.73;;;15.65;;
42662;SDS011;44330;51.360;6.686;2023-01-28T13:24:56;24.63;;;15.55;;
42662;SDS011;44330;51.360;6.686;2023-01-28T13:27:37;23.88;;;15.82;;
42662;SDS011;44330;51.360;6.686;2023-01-28T13:30:21;27.02;;;16.27;;
42662;SDS011;44330;51.360;6.686;2023-01-28T13:35:29;21.35;;;14.73;;
42662;SDS011;44330;51.360;6.686;2023-01-28T13:38:08;24.33;;;15.60;;
42662;SDS011;44330;51.360;6.686;2023-01-28T13:40:40;23.88;;;15.20;;
42662;SDS011;44330;51.360;6.686;2023-01-28T13:43:23;27.23;;;17.00;;
42662;SDS011;44330;51.360;6.686;2023-01-28T13:46:05;25.67;;;15.68;;
42662;SDS011;44330;51.360;6.686;2023-01-28T13:48:41;25.90;;;15.15;;
42662;SDS011;44330;51.360;6.686;2023-01-28T13:51:40;28.10;;;15.65;;
42662;SDS011;44330;51.360;6.686;2023-01-28T13:54:02;28.27;;;16.88;;
42662;SDS011;44330;51.360;6.686;2023-01-28T13:56:54;31.55;;;16.80;;
42662;SDS011;44330;51.360;6.686;2023-01-28T13:59:43;27.58;;;16.58;;
42662;SDS011;44330;51.360;6.686;2023-01-28T14:10:33;35.65;;;19.88;;
42662;SDS011;44330;51.360;6.686;2023-01-28T14:13:21;37.90;;;18.95;;
42662;SDS011;44330;51.360;6.686;2023-01-28T14:16:13;30.88;;;17.85;;
42662;SDS011;44330;51.360;6.686;2023-01-28T14:18:42;35.13;;;19.25;;
42662;SDS011;44330;51.360;6.686;2023-01-28T14:21:11;32.78;;;18.80;;
42662;SDS011;44330;51.360;6.686;2023-01-28T14:23:43;32.50;;;19.20;;
42662;SDS011;44330;51.360;6.686;2023-01-28T14:31:49;31.88;;;18.50;;
42662;SDS011;44330;51.360;6.686;2023-01-28T14:36:56;33.08;;;18.92;;
42662;SDS011;44330;51.360;6.686;2023-01-28T14:39:31;32.38;;;18.35;;
42662;SDS011;44330;51.360;6.686;2023-01-28T14:42:04;29.27;;;18.70;;
42662;SDS011;44330;51.360;6.686;2023-01-28T14:44:39;30.77;;;17.30;;
42662;SDS011;44330;51.360;6.686;2023-01-28T14:47:15;29.17;;;17.85;;
42662;SDS011;44330;51.360;6.686;2023-01-28T14:49:48;35.13;;;21.17;;
42662;SDS011;44330;51.360;6.686;2023-01-28T14:55:35;32.95;;;20.83;;
42662;SDS011;44330;51.360;6.686;2023-01-28T14:58:26;34.70;;;20.70;;
42662;SDS011;44330;51.360;6.686;2023-01-28T15:00:58;27.10;;;17.70;;
42662;SDS011;44330;51.360;6.686;2023-01-28T15:03:25;31.60;;;17.98;;
42662;SDS011;44330;51.360;6.686;2023-01-28T15:06:05;31.35;;;18.42;;
42662;SDS011;44330;51.360;6.686;2023-01-28T15:08:37;32.53;;;19.88;;
42662;SDS011;44330;51.360;6.686;2023-01-28T15:11:03;34.17;;;20.77;;
42662;SDS011;44330;51.360;6.686;2023-01-28T15:13:33;36.53;;;21.10;;
42662;SDS011;44330;51.360;6.686;2023-01-28T15:16:02;43.65;;;24.45;;
42662;SDS011;44330;51.360;6.686;2023-01-28T15:18:31;50.55;;;28.17;;
42662;SDS011;44330;51.360;6.686;2023-01-28T15:21:00;46.30;;;26.63;;
42662;SDS011;44330;51.360;6.686;2023-01-28T15:25:57;39.25;;;22.17;;
42662;SDS011;44330;51.360;6.686;2023-01-28T15:28:27;44.30;;;23.40;;
42662;SDS011;44330;51.360;6.686;2023-01-28T15:30:55;38.88;;;22.70;;
42662;SDS011;44330;51.360;6.686;2023-01-28T15:33:22;45.15;;;24.92;;
42662;SDS011;44330;51.360;6.686;2023-01-28T15:35:48;41.50;;;22.80;;
42662;SDS011;44330;51.360;6.686;2023-01-28T15:38:15;41.05;;;23.95;;
42662;SDS011;44330;51.360;6.686;2023-01-28T15:40:45;38.70;;;21.98;;
42662;SDS011;44330;51.360;6.686;2023-01-28T15:43:22;40.22;;;22.90;;
42662;SDS011;44330;51.360;6.686;2023-01-28T15:45:51;50.10;;;26.20;;
42662;SDS011;44330;51.360;6.686;2023-01-28T15:48:20;57.92;;;28.73;;
42662;SDS011;44330;51.360;6.686;2023-01-28T15:50:47;55.33;;;29.63;;
42662;SDS011;44330;51.360;6.686;2023-01-28T15:53:34;52.40;;;28.55;;
42662;SDS011;44330;51.360;6.686;2023-01-28T15:56:07;57.70;;;29.95;;
42662;SDS011;44330;51.360;6.686;2023-01-28T15:58:34;38.22;;;20.90;;
42662;SDS011;44330;51.360;6.686;2023-01-28T16:03:34;60.95;;;30.77;;
42662;SDS011;44330;51.360;6.686;2023-01-28T16:09:13;56.22;;;29.45;;
42662;SDS011;44330;51.360;6.686;2023-01-28T16:11:24;57.03;;;30.25;;
42662;SDS011;44330;51.360;6.686;2023-01-28T16:16:51;57.45;;;28.77;;
42662;SDS011;44330;51.360;6.686;2023-01-28T16:19:14;57.70;;;29.50;;
42662;SDS011;44330;51.360;6.686;2023-01-28T16:22:04;57.92;;;29.58;;
42662;SDS011;44330;51.360;6.686;2023-01-28T16:24:31;57.35;;;30.33;;
42662;SDS011;44330;51.360;6.686;2023-01-28T16:27:02;56.45;;;29.65;;
42662;SDS011;44330;51.360;6.686;2023-01-28T16:29:31;56.90;;;30.35;;
42662;SDS011;44330;51.360;6.686;2023-01-28T16:31:57;51.42;;;27.65;;
42662;SDS011;44330;51.360;6.686;2023-01-28T16:34:23;51.65;;;27.15;;
42662;SDS011;44330;51.360;6.686;2023-01-28T16:36:51;56.00;;;28.65;;
42662;SDS011;44330;51.360;6.686;2023-01-28T16:39:17;54.28;;;27.95;;
42662;SDS011;44330;51.360;6.686;2023-01-28T16:41:45;44.35;;;21.90;;
42662;SDS011;44330;51.360;6.686;2023-01-28T16:44:13;54.38;;;27.42;;